sensor_id;sensor_type;location;lat;lon;timestamp;P1;durP1;ratioP1;P2;durP2;ratioP2
63284;SDS011;49409;55.708;37.522;2022-08-16T00:00:18;10.23;;;5.78;;
63284;SDS011;49409;55.708;37.522;2022-08-16T00:02:46;11.43;;;5.78;;
63284;SDS011;49409;55.708;37.522;2022-08-16T00:05:13;9.10;;;5.78;;
63284;SDS011;49409;55.708;37.522;2022-08-16T00:07:39;8.93;;;5.82;;
63284;SDS011;49409;55.708;37.522;2022-08-16T00:10:07;8.45;;;5.70;;
63284;SDS011;49409;55.708;37.522;2022-08-16T00:12:34;8.60;;;5.72;;
63284;SDS011;49409;55.708;37.522;2022-08-16T00:15:03;8.60;;;5.72;;
63284;SDS011;49409;55.708;37.522;2022-08-16T00:17:31;10.10;;;6.07;;
63284;SDS011;49409;55.708;37.522;2022-08-16T00:19:57;10.05;;;5.75;;
63284;SDS011;49409;55.708;37.522;2022-08-16T00:22:23;8.20;;;5.78;;
63284;SDS011;49409;55.708;37.522;2022-08-16T00:24:49;9.45;;;5.72;;
63284;SDS011;49409;55.708;37.522;2022-08-16T00:27:15;8.13;;;4.97;;
63284;SDS011;49409;55.708;37.522;2022-08-16T00:29:41;8.13;;;4.93;;
63284;SDS011;49409;55.708;37.522;2022-08-16T00:32:07;8.63;;;5.20;;
63284;SDS011;49409;55.708;37.522;2022-08-16T00:34:34;8.07;;;5.30;;
63284;SDS011;49409;55.708;37.522;2022-08-16T00:37:00;9.35;;;4.95;;
63284;SDS011;49409;55.708;37.522;2022-08-16T00:39:26;8.68;;;4.57;;
63284;SDS011;49409;55.708;37.522;2022-08-16T00:41:51;7.88;;;5.07;;
63284;SDS011;49409;55.708;37.522;2022-08-16T00:44:18;9.05;;;5.00;;
63284;SDS011;49409;55.708;37.522;2022-08-16T00:49:17;9.38;;;4.88;;
63284;SDS011;49409;55.708;37.522;2022-08-16T00:51:43;8.93;;;5.15;;
63284;SDS011;49409;55.708;37.522;2022-08-16T00:54:08;7.93;;;5.30;;
63284;SDS011;49409;55.708;37.522;2022-08-16T00:56:35;8.93;;;5.13;;
63284;SDS011;49409;55.708;37.522;2022-08-16T00:59:04;8.40;;;4.43;;
63284;SDS011;49409;55.708;37.522;2022-08-16T01:01:32;10.82;;;4.95;;
63284;SDS011;49409;55.708;37.522;2022-08-16T01:03:58;8.55;;;4.43;;
63284;SDS011;49409;55.708;37.522;2022-08-16T01:06:25;11.15;;;4.75;;
63284;SDS011;49409;55.708;37.522;2022-08-16T01:08:51;8.05;;;4.70;;
63284;SDS011;49409;55.708;37.522;2022-08-16T01:11:19;8.20;;;4.95;;
63284;SDS011;49409;55.708;37.522;2022-08-16T01:13:47;7.15;;;4.32;;
63284;SDS011;49409;55.708;37.522;2022-08-16T01:16:18;6.97;;;4.50;;
63284;SDS011;49409;55.708;37.522;2022-08-16T01:18:56;9.48;;;4.47;;
63284;SDS011;49409;55.708;37.522;2022-08-16T01:26:43;7.72;;;4.43;;
63284;SDS011;49409;55.708;37.522;2022-08-16T01:29:13;7.70;;;4.60;;
63284;SDS011;49409;55.708;37.522;2022-08-16T01:31:43;6.80;;;4.50;;
63284;SDS011;49409;55.708;37.522;2022-08-16T01:34:10;6.93;;;4.47;;
63284;SDS011;49409;55.708;37.522;2022-08-16T01:36:37;8.48;;;4.13;;
63284;SDS011;49409;55.708;37.522;2022-08-16T01:39:07;7.35;;;4.15;;
63284;SDS011;49409;55.708;37.522;2022-08-16T01:41:35;7.10;;;4.00;;
63284;SDS011;49409;55.708;37.522;2022-08-16T01:44:00;9.02;;;4.55;;
63284;SDS011;49409;55.708;37.522;2022-08-16T01:49:15;8.77;;;4.63;;
63284;SDS011;49409;55.708;37.522;2022-08-16T01:51:45;7.22;;;4.10;;
63284;SDS011;49409;55.708;37.522;2022-08-16T01:54:14;7.93;;;4.28;;
63284;SDS011;49409;55.708;37.522;2022-08-16T01:56:40;7.68;;;4.32;;
63284;SDS011;49409;55.708;37.522;2022-08-16T01:59:07;6.30;;;4.13;;
63284;SDS011;49409;55.708;37.522;2022-08-16T02:01:34;7.15;;;4.47;;
63284;SDS011;49409;55.708;37.522;2022-08-16T02:04:01;8.52;;;4.50;;
63284;SDS011;49409;55.708;37.522;2022-08-16T02:06:27;7.07;;;4.25;;
63284;SDS011;49409;55.708;37.522;2022-08-16T02:08:53;6.22;;;3.75;;
63284;SDS011;49409;55.708;37.522;2022-08-16T02:11:19;7.25;;;4.05;;
63284;SDS011;49409;55.708;37.522;2022-08-16T02:13:46;6.55;;;4.63;;
63284;SDS011;49409;55.708;37.522;2022-08-16T02:16:12;8.23;;;4.38;;
63284;SDS011;49409;55.708;37.522;2022-08-16T02:18:38;6.72;;;3.70;;
63284;SDS011;49409;55.708;37.522;2022-08-16T02:21:04;8.18;;;4.72;;
63284;SDS011;49409;55.708;37.522;2022-08-16T02:23:31;8.77;;;4.60;;
63284;SDS011;49409;55.708;37.522;2022-08-16T02:26:00;8.98;;;4.32;;
63284;SDS011;49409;55.708;37.522;2022-08-16T02:28:26;7.07;;;4.03;;
63284;SDS011;49409;55.708;37.522;2022-08-16T02:30:52;5.82;;;3.55;;
63284;SDS011;49409;55.708;37.522;2022-08-16T02:33:22;8.73;;;3.95;;
63284;SDS011;49409;55.708;37.522;2022-08-16T02:35:49;7.38;;;3.75;;
63284;SDS011;49409;55.708;37.522;2022-08-16T02:38:14;7.45;;;4.03;;
63284;SDS011;49409;55.708;37.522;2022-08-16T02:40:40;8.40;;;4.15;;
63284;SDS011;49409;55.708;37.522;2022-08-16T02:43:05;6.28;;;3.75;;
63284;SDS011;49409;55.708;37.522;2022-08-16T02:45:31;7.82;;;4.40;;
63284;SDS011;49409;55.708;37.522;2022-08-16T02:47:57;9.02;;;4.88;;
63284;SDS011;49409;55.708;37.522;2022-08-16T02:50:24;7.95;;;4.20;;
63284;SDS011;49409;55.708;37.522;2022-08-16T02:52:50;8.18;;;4.20;;
63284;SDS011;49409;55.708;37.522;2022-08-16T02:55:16;5.50;;;3.60;;
63284;SDS011;49409;55.708;37.522;2022-08-16T02:57:42;7.72;;;3.72;;
63284;SDS011;49409;55.708;37.522;2022-08-16T03:00:08;8.23;;;4.10;;
63284;SDS011;49409;55.708;37.522;2022-08-16T03:02:37;7.07;;;3.78;;
63284;SDS011;49409;55.708;37.522;2022-08-16T03:05:05;7.15;;;4.00;;
63284;SDS011;49409;55.708;37.522;2022-08-16T03:07:32;7.13;;;4.22;;
63284;SDS011;49409;55.708;37.522;2022-08-16T03:09:58;7.82;;;3.83;;
63284;SDS011;49409;55.708;37.522;2022-08-16T03:12:24;9.50;;;4.13;;
63284;SDS011;49409;55.708;37.522;2022-08-16T03:14:50;6.13;;;4.10;;
63284;SDS011;49409;55.708;37.522;2022-08-16T03:17:16;6.45;;;4.38;;
63284;SDS011;49409;55.708;37.522;2022-08-16T03:19:43;5.72;;;3.88;;
63284;SDS011;49409;55.708;37.522;2022-08-16T03:22:09;7.15;;;3.75;;
63284;SDS011;49409;55.708;37.522;2022-08-16T03:24:34;7.97;;;4.03;;
63284;SDS011;49409;55.708;37.522;2022-08-16T03:27:00;7.03;;;3.78;;
63284;SDS011;49409;55.708;37.522;2022-08-16T03:29:28;6.53;;;4.20;;
63284;SDS011;49409;55.708;37.522;2022-08-16T03:31:59;7.10;;;3.75;;
63284;SDS011;49409;55.708;37.522;2022-08-16T03:34:25;6.63;;;3.70;;
63284;SDS011;49409;55.708;37.522;2022-08-16T03:36:51;7.25;;;4.30;;
63284;SDS011;49409;55.708;37.522;2022-08-16T03:39:17;8.38;;;4.22;;
63284;SDS011;49409;55.708;37.522;2022-08-16T03:41:42;5.18;;;3.70;;
63284;SDS011;49409;55.708;37.522;2022-08-16T03:44:08;7.35;;;4.00;;
63284;SDS011;49409;55.708;37.522;2022-08-16T03:46:34;6.72;;;3.97;;
63284;SDS011;49409;55.708;37.522;2022-08-16T03:49:00;9.00;;;4.30;;
63284;SDS011;49409;55.708;37.522;2022-08-16T03:51:25;8.43;;;4.35;;
63284;SDS011;49409;55.708;37.522;2022-08-16T03:53:51;7.10;;;4.32;;
63284;SDS011;49409;55.708;37.522;2022-08-16T03:56:17;7.47;;;4.40;;
63284;SDS011;49409;55.708;37.522;2022-08-16T03:58:43;9.13;;;4.43;;
63284;SDS011;49409;55.708;37.522;2022-08-16T04:01:08;7.00;;;4.20;;
63284;SDS011;49409;55.708;37.522;2022-08-16T04:03:34;6.90;;;4.22;;
63284;SDS011;49409;55.708;37.522;2022-08-16T04:06:00;7.78;;;4.20;;
63284;SDS011;49409;55.708;37.522;2022-08-16T04:08:26;10.80;;;4.43;;
63284;SDS011;49409;55.708;37.522;2022-08-16T04:10:52;8.77;;;4.72;;
63284;SDS011;49409;55.708;37.522;2022-08-16T04:13:19;7.65;;;4.05;;
63284;SDS011;49409;55.708;37.522;2022-08-16T04:15:45;6.05;;;3.85;;
63284;SDS011;49409;55.708;37.522;2022-08-16T04:18:12;10.32;;;4.28;;
63284;SDS011;49409;55.708;37.522;2022-08-16T04:20:37;9.35;;;4.90;;
63284;SDS011;49409;55.708;37.522;2022-08-16T04:23:04;8.60;;;4.40;;
63284;SDS011;49409;55.708;37.522;2022-08-16T04:25:32;8.05;;;4.32;;
63284;SDS011;49409;55.708;37.522;2022-08-16T04:27:58;7.97;;;4.60;;
63284;SDS011;49409;55.708;37.522;2022-08-16T04:30:24;6.20;;;3.72;;
63284;SDS011;49409;55.708;37.522;2022-08-16T04:32:52;9.05;;;4.45;;
63284;SDS011;49409;55.708;37.522;2022-08-16T04:35:19;9.27;;;3.85;;
63284;SDS011;49409;55.708;37.522;2022-08-16T04:37:46;8.50;;;4.43;;
63284;SDS011;49409;55.708;37.522;2022-08-16T04:40:13;8.00;;;4.75;;
63284;SDS011;49409;55.708;37.522;2022-08-16T04:42:40;7.18;;;4.57;;
63284;SDS011;49409;55.708;37.522;2022-08-16T04:45:07;7.68;;;4.47;;
63284;SDS011;49409;55.708;37.522;2022-08-16T04:47:38;6.10;;;4.22;;
63284;SDS011;49409;55.708;37.522;2022-08-16T04:50:06;7.28;;;4.10;;
63284;SDS011;49409;55.708;37.522;2022-08-16T04:52:38;7.30;;;3.75;;
63284;SDS011;49409;55.708;37.522;2022-08-16T04:55:05;6.40;;;4.22;;
63284;SDS011;49409;55.708;37.522;2022-08-16T04:57:36;9.10;;;4.25;;
63284;SDS011;49409;55.708;37.522;2022-08-16T05:00:04;8.68;;;4.57;;
63284;SDS011;49409;55.708;37.522;2022-08-16T05:05:54;5.90;;;3.55;;
63284;SDS011;49409;55.708;37.522;2022-08-16T05:08:20;8.60;;;4.45;;
63284;SDS011;49409;55.708;37.522;2022-08-16T05:10:46;7.03;;;4.65;;
63284;SDS011;49409;55.708;37.522;2022-08-16T05:13:11;7.63;;;4.20;;
63284;SDS011;49409;55.708;37.522;2022-08-16T05:15:37;7.25;;;4.63;;
63284;SDS011;49409;55.708;37.522;2022-08-16T05:18:02;9.27;;;4.65;;
63284;SDS011;49409;55.708;37.522;2022-08-16T05:20:28;8.82;;;4.57;;
63284;SDS011;49409;55.708;37.522;2022-08-16T05:22:54;8.43;;;4.50;;
63284;SDS011;49409;55.708;37.522;2022-08-16T05:25:20;6.05;;;4.05;;
63284;SDS011;49409;55.708;37.522;2022-08-16T05:27:46;7.47;;;4.78;;
63284;SDS011;49409;55.708;37.522;2022-08-16T05:30:13;8.57;;;4.57;;
63284;SDS011;49409;55.708;37.522;2022-08-16T05:32:39;6.15;;;3.90;;
63284;SDS011;49409;55.708;37.522;2022-08-16T05:35:06;7.82;;;4.13;;
63284;SDS011;49409;55.708;37.522;2022-08-16T05:37:34;8.30;;;4.65;;
63284;SDS011;49409;55.708;37.522;2022-08-16T05:40:02;6.43;;;3.83;;
63284;SDS011;49409;55.708;37.522;2022-08-16T05:42:29;7.93;;;4.43;;
63284;SDS011;49409;55.708;37.522;2022-08-16T05:44:54;8.18;;;4.65;;
63284;SDS011;49409;55.708;37.522;2022-08-16T05:47:20;7.43;;;3.65;;
63284;SDS011;49409;55.708;37.522;2022-08-16T05:49:45;6.72;;;4.25;;
63284;SDS011;49409;55.708;37.522;2022-08-16T05:52:11;9.15;;;4.22;;
63284;SDS011;49409;55.708;37.522;2022-08-16T05:54:36;7.68;;;4.28;;
63284;SDS011;49409;55.708;37.522;2022-08-16T05:57:02;7.97;;;3.88;;
63284;SDS011;49409;55.708;37.522;2022-08-16T05:59:29;8.25;;;4.10;;
63284;SDS011;49409;55.708;37.522;2022-08-16T06:01:55;5.97;;;4.15;;
63284;SDS011;49409;55.708;37.522;2022-08-16T06:04:21;8.55;;;4.18;;
63284;SDS011;49409;55.708;37.522;2022-08-16T06:06:46;8.00;;;4.05;;
63284;SDS011;49409;55.708;37.522;2022-08-16T06:09:13;7.30;;;4.53;;
63284;SDS011;49409;55.708;37.522;2022-08-16T06:11:39;6.90;;;4.00;;
63284;SDS011;49409;55.708;37.522;2022-08-16T06:14:05;9.35;;;4.63;;
63284;SDS011;49409;55.708;37.522;2022-08-16T06:16:31;6.80;;;4.35;;
63284;SDS011;49409;55.708;37.522;2022-08-16T06:18:57;8.02;;;4.05;;
63284;SDS011;49409;55.708;37.522;2022-08-16T06:21:23;10.07;;;4.50;;
63284;SDS011;49409;55.708;37.522;2022-08-16T06:23:49;8.63;;;5.10;;
63284;SDS011;49409;55.708;37.522;2022-08-16T06:26:15;8.55;;;4.22;;
63284;SDS011;49409;55.708;37.522;2022-08-16T06:28:41;5.88;;;3.65;;
63284;SDS011;49409;55.708;37.522;2022-08-16T06:31:10;8.05;;;4.25;;
63284;SDS011;49409;55.708;37.522;2022-08-16T06:33:37;6.75;;;4.05;;
63284;SDS011;49409;55.708;37.522;2022-08-16T06:36:03;6.55;;;4.28;;
63284;SDS011;49409;55.708;37.522;2022-08-16T06:38:30;7.18;;;4.38;;
63284;SDS011;49409;55.708;37.522;2022-08-16T06:40:56;5.00;;;3.65;;
63284;SDS011;49409;55.708;37.522;2022-08-16T06:43:21;9.00;;;4.82;;
63284;SDS011;49409;55.708;37.522;2022-08-16T06:45:47;6.13;;;3.70;;
63284;SDS011;49409;55.708;37.522;2022-08-16T06:48:13;7.05;;;4.00;;
63284;SDS011;49409;55.708;37.522;2022-08-16T06:50:39;8.02;;;3.97;;
63284;SDS011;49409;55.708;37.522;2022-08-16T06:53:05;9.25;;;3.83;;
63284;SDS011;49409;55.708;37.522;2022-08-16T06:55:31;7.05;;;3.70;;
63284;SDS011;49409;55.708;37.522;2022-08-16T06:57:59;8.30;;;3.85;;
63284;SDS011;49409;55.708;37.522;2022-08-16T07:00:25;7.45;;;4.25;;
63284;SDS011;49409;55.708;37.522;2022-08-16T07:02:51;7.25;;;4.03;;
63284;SDS011;49409;55.708;37.522;2022-08-16T07:05:17;7.47;;;4.22;;
63284;SDS011;49409;55.708;37.522;2022-08-16T07:07:44;5.72;;;3.60;;
63284;SDS011;49409;55.708;37.522;2022-08-16T07:10:12;6.20;;;3.92;;
63284;SDS011;49409;55.708;37.522;2022-08-16T07:12:38;6.13;;;3.53;;
63284;SDS011;49409;55.708;37.522;2022-08-16T07:15:05;7.03;;;3.67;;
63284;SDS011;49409;55.708;37.522;2022-08-16T07:17:31;5.75;;;3.30;;
63284;SDS011;49409;55.708;37.522;2022-08-16T07:19:57;5.38;;;3.17;;
63284;SDS011;49409;55.708;37.522;2022-08-16T07:22:23;7.03;;;3.28;;
63284;SDS011;49409;55.708;37.522;2022-08-16T07:24:49;5.88;;;3.42;;
63284;SDS011;49409;55.708;37.522;2022-08-16T07:27:15;5.85;;;3.70;;
63284;SDS011;49409;55.708;37.522;2022-08-16T07:29:41;6.78;;;3.75;;
63284;SDS011;49409;55.708;37.522;2022-08-16T07:32:07;5.68;;;3.50;;
63284;SDS011;49409;55.708;37.522;2022-08-16T07:34:32;5.10;;;3.40;;
63284;SDS011;49409;55.708;37.522;2022-08-16T07:36:59;6.97;;;3.50;;
63284;SDS011;49409;55.708;37.522;2022-08-16T07:39:27;5.72;;;3.40;;
63284;SDS011;49409;55.708;37.522;2022-08-16T07:41:54;6.60;;;3.50;;
63284;SDS011;49409;55.708;37.522;2022-08-16T07:44:19;7.60;;;3.60;;
63284;SDS011;49409;55.708;37.522;2022-08-16T07:46:45;6.82;;;3.33;;
63284;SDS011;49409;55.708;37.522;2022-08-16T07:49:11;7.53;;;3.35;;
63284;SDS011;49409;55.708;37.522;2022-08-16T07:51:37;5.07;;;3.22;;
63284;SDS011;49409;55.708;37.522;2022-08-16T07:54:03;7.55;;;3.13;;
63284;SDS011;49409;55.708;37.522;2022-08-16T07:56:30;7.53;;;3.50;;
63284;SDS011;49409;55.708;37.522;2022-08-16T07:58:55;7.88;;;3.50;;
63284;SDS011;49409;55.708;37.522;2022-08-16T08:01:22;7.20;;;3.78;;
63284;SDS011;49409;55.708;37.522;2022-08-16T08:03:49;6.32;;;3.63;;
63284;SDS011;49409;55.708;37.522;2022-08-16T08:06:16;4.43;;;3.00;;
63284;SDS011;49409;55.708;37.522;2022-08-16T08:08:43;6.15;;;3.17;;
63284;SDS011;49409;55.708;37.522;2022-08-16T08:11:08;5.65;;;3.20;;
63284;SDS011;49409;55.708;37.522;2022-08-16T08:16:56;8.55;;;3.08;;
63284;SDS011;49409;55.708;37.522;2022-08-16T08:19:21;6.50;;;2.78;;
63284;SDS011;49409;55.708;37.522;2022-08-16T08:21:47;5.78;;;3.50;;
63284;SDS011;49409;55.708;37.522;2022-08-16T08:24:13;6.55;;;3.40;;
63284;SDS011;49409;55.708;37.522;2022-08-16T08:26:39;5.35;;;3.22;;
63284;SDS011;49409;55.708;37.522;2022-08-16T08:29:05;5.80;;;3.35;;
63284;SDS011;49409;55.708;37.522;2022-08-16T08:31:31;6.85;;;3.22;;
63284;SDS011;49409;55.708;37.522;2022-08-16T08:34:00;6.75;;;3.03;;
63284;SDS011;49409;55.708;37.522;2022-08-16T08:36:28;7.57;;;3.35;;
63284;SDS011;49409;55.708;37.522;2022-08-16T08:38:55;5.72;;;3.25;;
63284;SDS011;49409;55.708;37.522;2022-08-16T08:41:21;5.15;;;3.03;;
63284;SDS011;49409;55.708;37.522;2022-08-16T08:43:52;6.35;;;3.47;;
63284;SDS011;49409;55.708;37.522;2022-08-16T08:46:19;6.03;;;3.42;;
63284;SDS011;49409;55.708;37.522;2022-08-16T08:48:44;5.82;;;3.45;;
63284;SDS011;49409;55.708;37.522;2022-08-16T08:51:10;5.50;;;3.15;;
63284;SDS011;49409;55.708;37.522;2022-08-16T08:53:36;4.78;;;2.85;;
63284;SDS011;49409;55.708;37.522;2022-08-16T08:56:02;4.35;;;3.00;;
63284;SDS011;49409;55.708;37.522;2022-08-16T08:58:31;4.57;;;3.15;;
63284;SDS011;49409;55.708;37.522;2022-08-16T09:00:57;6.28;;;3.10;;
63284;SDS011;49409;55.708;37.522;2022-08-16T09:03:23;7.75;;;3.20;;
63284;SDS011;49409;55.708;37.522;2022-08-16T09:05:49;7.18;;;3.17;;
63284;SDS011;49409;55.708;37.522;2022-08-16T09:08:17;6.78;;;3.35;;
63284;SDS011;49409;55.708;37.522;2022-08-16T09:10:43;8.38;;;3.42;;
63284;SDS011;49409;55.708;37.522;2022-08-16T09:13:08;4.75;;;3.15;;
63284;SDS011;49409;55.708;37.522;2022-08-16T09:15:34;5.85;;;2.97;;
63284;SDS011;49409;55.708;37.522;2022-08-16T09:18:01;6.22;;;3.30;;
63284;SDS011;49409;55.708;37.522;2022-08-16T09:20:28;5.93;;;2.95;;
63284;SDS011;49409;55.708;37.522;2022-08-16T09:22:55;7.00;;;3.67;;
63284;SDS011;49409;55.708;37.522;2022-08-16T09:28:15;7.90;;;3.47;;
63284;SDS011;49409;55.708;37.522;2022-08-16T09:30:40;5.50;;;3.25;;
63284;SDS011;49409;55.708;37.522;2022-08-16T09:33:06;5.25;;;3.30;;
63284;SDS011;49409;55.708;37.522;2022-08-16T09:35:34;6.72;;;3.28;;
63284;SDS011;49409;55.708;37.522;2022-08-16T09:38:01;4.47;;;3.13;;
63284;SDS011;49409;55.708;37.522;2022-08-16T09:40:27;7.35;;;3.35;;
63284;SDS011;49409;55.708;37.522;2022-08-16T09:42:53;5.28;;;3.30;;
63284;SDS011;49409;55.708;37.522;2022-08-16T09:45:20;5.68;;;3.17;;
63284;SDS011;49409;55.708;37.522;2022-08-16T09:47:46;6.13;;;3.40;;
63284;SDS011;49409;55.708;37.522;2022-08-16T09:50:17;6.57;;;3.90;;
63284;SDS011;49409;55.708;37.522;2022-08-16T09:52:43;6.65;;;3.33;;
63284;SDS011;49409;55.708;37.522;2022-08-16T09:55:09;5.80;;;3.30;;
63284;SDS011;49409;55.708;37.522;2022-08-16T09:57:36;4.85;;;3.42;;
63284;SDS011;49409;55.708;37.522;2022-08-16T10:00:07;7.30;;;3.67;;
63284;SDS011;49409;55.708;37.522;2022-08-16T10:02:34;7.28;;;3.92;;
63284;SDS011;49409;55.708;37.522;2022-08-16T10:05:02;6.28;;;3.50;;
63284;SDS011;49409;55.708;37.522;2022-08-16T10:07:29;5.90;;;3.25;;
63284;SDS011;49409;55.708;37.522;2022-08-16T10:09:56;8.75;;;3.55;;
63284;SDS011;49409;55.708;37.522;2022-08-16T10:12:26;7.22;;;3.95;;
63284;SDS011;49409;55.708;37.522;2022-08-16T10:15:13;5.80;;;3.58;;
63284;SDS011;49409;55.708;37.522;2022-08-16T10:17:41;4.97;;;3.50;;
63284;SDS011;49409;55.708;37.522;2022-08-16T10:20:07;5.75;;;3.33;;
63284;SDS011;49409;55.708;37.522;2022-08-16T10:22:35;4.68;;;3.35;;
63284;SDS011;49409;55.708;37.522;2022-08-16T10:25:03;7.82;;;3.40;;
63284;SDS011;49409;55.708;37.522;2022-08-16T10:27:30;6.22;;;3.50;;
63284;SDS011;49409;55.708;37.522;2022-08-16T10:29:55;5.63;;;3.45;;
63284;SDS011;49409;55.708;37.522;2022-08-16T10:32:21;6.38;;;3.60;;
63284;SDS011;49409;55.708;37.522;2022-08-16T10:34:46;6.22;;;3.80;;
63284;SDS011;49409;55.708;37.522;2022-08-16T10:37:12;7.07;;;3.88;;
63284;SDS011;49409;55.708;37.522;2022-08-16T10:39:38;5.72;;;3.67;;
63284;SDS011;49409;55.708;37.522;2022-08-16T10:42:06;6.05;;;3.50;;
63284;SDS011;49409;55.708;37.522;2022-08-16T10:44:32;5.88;;;3.58;;
63284;SDS011;49409;55.708;37.522;2022-08-16T10:46:58;6.72;;;3.83;;
63284;SDS011;49409;55.708;37.522;2022-08-16T10:52:38;5.25;;;3.50;;
63284;SDS011;49409;55.708;37.522;2022-08-16T10:55:04;7.10;;;4.00;;
63284;SDS011;49409;55.708;37.522;2022-08-16T10:57:36;6.65;;;3.67;;
63284;SDS011;49409;55.708;37.522;2022-08-16T11:00:03;6.97;;;3.97;;
63284;SDS011;49409;55.708;37.522;2022-08-16T11:02:34;7.20;;;4.32;;
63284;SDS011;49409;55.708;37.522;2022-08-16T11:05:00;7.10;;;3.58;;
63284;SDS011;49409;55.708;37.522;2022-08-16T11:07:26;6.97;;;3.47;;
63284;SDS011;49409;55.708;37.522;2022-08-16T11:09:51;6.15;;;4.13;;
63284;SDS011;49409;55.708;37.522;2022-08-16T11:12:17;7.63;;;3.67;;
63284;SDS011;49409;55.708;37.522;2022-08-16T11:14:42;6.70;;;3.60;;
63284;SDS011;49409;55.708;37.522;2022-08-16T11:17:08;7.80;;;3.72;;
63284;SDS011;49409;55.708;37.522;2022-08-16T11:19:37;6.43;;;4.00;;
63284;SDS011;49409;55.708;37.522;2022-08-16T11:22:05;7.35;;;3.97;;
63284;SDS011;49409;55.708;37.522;2022-08-16T11:24:31;6.30;;;3.70;;
63284;SDS011;49409;55.708;37.522;2022-08-16T11:26:58;7.18;;;3.65;;
63284;SDS011;49409;55.708;37.522;2022-08-16T11:29:24;5.65;;;3.58;;
63284;SDS011;49409;55.708;37.522;2022-08-16T11:31:50;6.30;;;4.15;;
63284;SDS011;49409;55.708;37.522;2022-08-16T11:34:16;5.60;;;3.40;;
63284;SDS011;49409;55.708;37.522;2022-08-16T11:36:41;7.20;;;3.78;;
63284;SDS011;49409;55.708;37.522;2022-08-16T11:39:07;6.95;;;3.90;;
63284;SDS011;49409;55.708;37.522;2022-08-16T11:41:32;6.60;;;4.28;;
63284;SDS011;49409;55.708;37.522;2022-08-16T11:44:02;6.25;;;3.65;;
63284;SDS011;49409;55.708;37.522;2022-08-16T11:46:30;6.72;;;3.75;;
63284;SDS011;49409;55.708;37.522;2022-08-16T11:48:55;7.07;;;3.63;;
63284;SDS011;49409;55.708;37.522;2022-08-16T11:51:22;6.50;;;3.72;;
63284;SDS011;49409;55.708;37.522;2022-08-16T11:53:47;5.97;;;3.47;;
63284;SDS011;49409;55.708;37.522;2022-08-16T11:56:13;7.03;;;3.88;;
63284;SDS011;49409;55.708;37.522;2022-08-16T11:58:38;6.25;;;3.55;;
63284;SDS011;49409;55.708;37.522;2022-08-16T12:01:04;6.30;;;3.97;;
63284;SDS011;49409;55.708;37.522;2022-08-16T12:03:30;6.65;;;4.05;;
63284;SDS011;49409;55.708;37.522;2022-08-16T12:05:58;5.93;;;3.65;;
63284;SDS011;49409;55.708;37.522;2022-08-16T12:08:26;6.75;;;4.07;;
63284;SDS011;49409;55.708;37.522;2022-08-16T12:10:53;7.70;;;4.00;;
63284;SDS011;49409;55.708;37.522;2022-08-16T12:13:19;5.82;;;3.67;;
63284;SDS011;49409;55.708;37.522;2022-08-16T12:15:44;5.63;;;3.65;;
63284;SDS011;49409;55.708;37.522;2022-08-16T12:18:10;5.93;;;3.70;;
63284;SDS011;49409;55.708;37.522;2022-08-16T12:20:37;6.45;;;3.47;;
63284;SDS011;49409;55.708;37.522;2022-08-16T12:23:05;6.80;;;3.90;;
63284;SDS011;49409;55.708;37.522;2022-08-16T12:25:31;6.32;;;3.50;;
63284;SDS011;49409;55.708;37.522;2022-08-16T12:27:58;5.13;;;3.53;;
63284;SDS011;49409;55.708;37.522;2022-08-16T12:30:27;6.50;;;3.92;;
63284;SDS011;49409;55.708;37.522;2022-08-16T12:32:55;5.32;;;3.65;;
63284;SDS011;49409;55.708;37.522;2022-08-16T12:35:22;5.88;;;3.72;;
63284;SDS011;49409;55.708;37.522;2022-08-16T12:37:48;6.60;;;3.42;;
63284;SDS011;49409;55.708;37.522;2022-08-16T12:40:16;6.82;;;3.45;;
63284;SDS011;49409;55.708;37.522;2022-08-16T12:42:45;7.10;;;3.55;;
63284;SDS011;49409;55.708;37.522;2022-08-16T12:45:13;5.72;;;3.55;;
63284;SDS011;49409;55.708;37.522;2022-08-16T12:47:40;7.43;;;3.67;;
63284;SDS011;49409;55.708;37.522;2022-08-16T12:50:24;6.00;;;3.90;;
63284;SDS011;49409;55.708;37.522;2022-08-16T12:52:51;8.45;;;3.85;;
63284;SDS011;49409;55.708;37.522;2022-08-16T12:55:17;6.47;;;4.00;;
63284;SDS011;49409;55.708;37.522;2022-08-16T12:57:43;6.22;;;3.78;;
63284;SDS011;49409;55.708;37.522;2022-08-16T13:00:11;7.80;;;4.18;;
63284;SDS011;49409;55.708;37.522;2022-08-16T13:02:40;6.72;;;3.78;;
63284;SDS011;49409;55.708;37.522;2022-08-16T13:05:10;5.78;;;3.90;;
63284;SDS011;49409;55.708;37.522;2022-08-16T13:07:36;6.72;;;4.07;;
63284;SDS011;49409;55.708;37.522;2022-08-16T13:10:05;7.47;;;3.95;;
63284;SDS011;49409;55.708;37.522;2022-08-16T13:12:39;6.47;;;4.10;;
63284;SDS011;49409;55.708;37.522;2022-08-16T13:15:07;7.40;;;3.58;;
63284;SDS011;49409;55.708;37.522;2022-08-16T13:17:35;7.90;;;4.10;;
63284;SDS011;49409;55.708;37.522;2022-08-16T13:20:04;7.28;;;4.13;;
63284;SDS011;49409;55.708;37.522;2022-08-16T13:22:43;8.20;;;4.07;;
63284;SDS011;49409;55.708;37.522;2022-08-16T13:28:52;5.90;;;3.50;;
63284;SDS011;49409;55.708;37.522;2022-08-16T13:31:18;8.65;;;4.30;;
63284;SDS011;49409;55.708;37.522;2022-08-16T13:33:43;7.50;;;4.07;;
63284;SDS011;49409;55.708;37.522;2022-08-16T13:36:10;7.50;;;4.00;;
63284;SDS011;49409;55.708;37.522;2022-08-16T13:38:36;5.03;;;3.90;;
63284;SDS011;49409;55.708;37.522;2022-08-16T13:41:03;6.00;;;3.95;;
63284;SDS011;49409;55.708;37.522;2022-08-16T13:43:30;7.05;;;4.25;;
63284;SDS011;49409;55.708;37.522;2022-08-16T13:45:56;7.10;;;4.00;;
63284;SDS011;49409;55.708;37.522;2022-08-16T13:48:26;7.65;;;3.60;;
63284;SDS011;49409;55.708;37.522;2022-08-16T13:50:53;5.68;;;3.88;;
63284;SDS011;49409;55.708;37.522;2022-08-16T13:53:20;6.32;;;4.30;;
63284;SDS011;49409;55.708;37.522;2022-08-16T13:55:45;6.88;;;4.18;;
63284;SDS011;49409;55.708;37.522;2022-08-16T13:58:11;6.53;;;3.83;;
63284;SDS011;49409;55.708;37.522;2022-08-16T14:00:37;6.63;;;4.45;;
63284;SDS011;49409;55.708;37.522;2022-08-16T14:03:02;8.50;;;4.18;;
63284;SDS011;49409;55.708;37.522;2022-08-16T14:05:28;7.20;;;4.18;;
63284;SDS011;49409;55.708;37.522;2022-08-16T14:07:53;6.97;;;4.20;;
63284;SDS011;49409;55.708;37.522;2022-08-16T14:10:19;8.05;;;4.78;;
63284;SDS011;49409;55.708;37.522;2022-08-16T14:12:45;8.90;;;4.75;;
63284;SDS011;49409;55.708;37.522;2022-08-16T14:15:11;6.68;;;3.58;;
63284;SDS011;49409;55.708;37.522;2022-08-16T14:17:39;8.65;;;4.60;;
63284;SDS011;49409;55.708;37.522;2022-08-16T14:20:05;6.88;;;4.00;;
63284;SDS011;49409;55.708;37.522;2022-08-16T14:22:34;8.90;;;4.88;;
63284;SDS011;49409;55.708;37.522;2022-08-16T14:25:03;6.93;;;4.53;;
63284;SDS011;49409;55.708;37.522;2022-08-16T14:27:30;7.35;;;4.20;;
63284;SDS011;49409;55.708;37.522;2022-08-16T14:29:57;8.30;;;4.75;;
63284;SDS011;49409;55.708;37.522;2022-08-16T14:32:24;8.10;;;4.85;;
63284;SDS011;49409;55.708;37.522;2022-08-16T14:34:53;6.65;;;4.60;;
63284;SDS011;49409;55.708;37.522;2022-08-16T14:37:20;7.13;;;5.47;;
63284;SDS011;49409;55.708;37.522;2022-08-16T14:39:46;8.25;;;5.30;;
63284;SDS011;49409;55.708;37.522;2022-08-16T14:42:13;7.25;;;5.30;;
63284;SDS011;49409;55.708;37.522;2022-08-16T14:44:42;9.15;;;5.50;;
63284;SDS011;49409;55.708;37.522;2022-08-16T14:47:08;7.32;;;5.70;;
63284;SDS011;49409;55.708;37.522;2022-08-16T14:49:35;9.02;;;5.53;;
63284;SDS011;49409;55.708;37.522;2022-08-16T14:52:02;8.40;;;5.68;;
63284;SDS011;49409;55.708;37.522;2022-08-16T14:54:30;9.68;;;5.47;;
63284;SDS011;49409;55.708;37.522;2022-08-16T14:56:55;9.27;;;5.93;;